Time;durP1;ratioP1;P1;durP2;ratioP2;P2;SDS_P1;SDS_P2;PMS_P1;PMS_P2;Temp;Humidity;BMP_temperature;BMP_pressure;BME280_temperature;BME280_humidity;BME280_pressure;Samples;Min_cycle;Max_cycle;Signal;HPM_P1;HPM_P2
2021/07/26 00:02:19;;;;;;;5.80;2.10;;;20.90;49.80;;;;;;4329793;33;20524;-35
2021/07/26 00:04:45;;;;;;;7.20;2.08;;;20.80;49.80;;;;;;4329952;33;20078;-35
2021/07/26 00:07:12;;;;;;;8.02;1.98;;;20.80;49.90;;;;;;4311968;33;20087;-36
2021/07/26 00:09:38;;;;;;;4.40;1.80;;;20.80;49.90;;;;;;4312217;33;20145;-36
2021/07/26 00:12:05;;;;;;;3.92;2.03;;;20.80;50.00;;;;;;4311725;33;20102;-37
2021/07/26 00:14:33;;;;;;;3.55;2.00;;;20.90;49.90;;;;;;4312073;33;20178;-36
2021/07/26 00:16:59;;;;;;;5.47;1.48;;;21.00;49.90;;;;;;4300081;33;20067;-36
2021/07/26 00:19:25;;;;;;;4.30;1.87;;;21.20;50.00;;;;;;4299521;33;20059;-36
2021/07/26 00:21:52;;;;;;;5.55;2.10;;;21.30;49.80;;;;;;4299721;33;20062;-38
2021/07/26 00:24:19;;;;;;;5.50;1.40;;;21.40;49.50;;;;;;4311960;33;20267;-38
2021/07/26 00:26:46;;;;;;;3.33;1.87;;;21.50;49.40;;;;;;4311922;33;20134;-35
2021/07/26 00:29:13;;;;;;;5.22;1.37;;;21.70;49.40;;;;;;4311304;33;20067;-35
2021/07/26 00:31:39;;;;;;;4.30;1.80;;;21.80;49.10;;;;;;4299790;33;20067;-36
2021/07/26 00:34:26;;;;;;;5.45;1.77;;;21.80;49.00;;;;;;4311619;33;20187;-36
2021/07/26 00:36:57;;;;;;;3.00;1.67;;;21.80;49.40;;;;;;4299448;33;20567;-36
2021/07/26 00:39:29;;;;;;;3.90;1.52;;;21.70;49.70;;;;;;4296685;33;20595;-36
2021/07/26 00:41:56;;;;;;;2.45;1.50;;;21.60;49.90;;;;;;4282148;33;20087;-36
2021/07/26 00:44:24;;;;;;;7.90;1.80;;;21.70;50.20;;;;;;4287642;33;20144;-37
2021/07/26 00:46:51;;;;;;;5.22;2.47;;;21.80;50.10;;;;;;4297184;33;20072;-36
2021/07/26 00:49:18;;;;;;;6.47;2.12;;;21.90;49.90;;;;;;4284724;33;20072;-36
2021/07/26 00:51:47;;;;;;;7.87;1.37;;;22.10;49.50;;;;;;4296880;33;20071;-36
2021/07/26 00:54:17;;;;;;;4.37;2.20;;;22.10;49.20;;;;;;4296792;33;20067;-35
2021/07/26 00:56:43;;;;;;;3.67;2.00;;;22.10;49.10;;;;;;4298052;33;20206;-35
2021/07/26 00:59:10;;;;;;;7.70;2.42;;;22.00;48.80;;;;;;4299656;33;20532;-37
2021/07/26 01:01:38;;;;;;;8.23;2.00;;;21.90;48.60;;;;;;4299273;33;20063;-37
2021/07/26 01:04:04;;;;;;;7.50;2.33;;;21.90;48.50;;;;;;4299448;33;20103;-37
2021/07/26 01:06:31;;;;;;;6.40;1.80;;;21.80;48.50;;;;;;4299204;33;20071;-37
2021/07/26 01:08:57;;;;;;;7.07;2.22;;;21.80;48.70;;;;;;4299277;33;20075;-37
2021/07/26 01:11:24;;;;;;;4.12;1.80;;;21.90;48.90;;;;;;4312337;33;20169;-37
2021/07/26 01:13:50;;;;;;;3.33;2.40;;;22.00;49.10;;;;;;4313634;33;20074;-36
2021/07/26 01:16:17;;;;;;;8.98;2.28;;;22.10;48.70;;;;;;4301542;33;20162;-37
2021/07/26 01:18:43;;;;;;;7.60;2.12;;;22.10;48.00;;;;;;4317535;33;20141;-37
2021/07/26 01:21:14;;;;;;;18.45;4.32;;;22.00;47.60;;;;;;4329323;33;20510;-37
2021/07/26 01:23:43;;;;;;;22.05;5.85;;;21.90;47.60;;;;;;4329941;33;20512;-37
2021/07/26 01:26:12;;;;;;;6.95;2.85;;;21.90;47.80;;;;;;4329257;33;20153;-36
2021/07/26 01:28:42;;;;;;;11.65;3.75;;;21.90;47.80;;;;;;4343064;33;20515;-37
2021/07/26 01:31:10;;;;;;;3.50;2.22;;;21.90;47.90;;;;;;4329213;33;20098;-36
2021/07/26 01:33:37;;;;;;;9.23;1.92;;;22.00;47.50;;;;;;4329187;33;20177;-37
2021/07/26 01:36:04;;;;;;;7.80;2.00;;;22.20;47.60;;;;;;4342974;33;20118;-37
2021/07/26 01:38:31;;;;;;;7.43;2.03;;;22.30;47.40;;;;;;4342851;32;20063;-37
2021/07/26 01:41:02;;;;;;;7.62;2.87;;;22.40;47.10;;;;;;4320054;33;20051;-36
2021/07/26 01:43:39;;;;;;;3.83;1.80;;;22.50;47.10;;;;;;4345453;33;20617;-36
2021/07/26 01:46:17;;;;;;;6.95;2.42;;;22.70;47.00;;;;;;4321854;33;20155;-36
2021/07/26 01:48:59;;;;;;;9.43;2.00;;;22.90;46.60;;;;;;4332078;33;20143;-36
2021/07/26 01:51:44;;;;;;;4.22;1.92;;;23.10;46.10;;;;;;4345929;33;20070;-37
2021/07/26 01:54:11;;;;;;;7.85;2.58;;;23.40;45.80;;;;;;4331828;33;20048;-36
2021/07/26 01:56:38;;;;;;;6.80;2.72;;;23.50;45.40;;;;;;4332302;33;20164;-37
2021/07/26 01:59:04;;;;;;;6.70;2.25;;;23.70;45.30;;;;;;4345836;33;20095;-37
2021/07/26 02:01:31;;;;;;;4.22;1.62;;;23.80;45.00;;;;;;4331798;33;20061;-36
2021/07/26 02:03:57;;;;;;;7.05;1.85;;;23.80;44.90;;;;;;4331886;33;20627;-36
2021/07/26 02:06:25;;;;;;;5.40;1.95;;;24.00;44.80;;;;;;4328092;33;20142;-36
2021/07/26 02:08:52;;;;;;;5.87;1.52;;;24.10;44.70;;;;;;4284670;33;20082;-45
2021/07/26 02:11:22;;;;;;;7.00;2.17;;;24.10;44.80;;;;;;4272572;33;20071;-37
2021/07/26 02:13:52;;;;;;;5.53;1.95;;;24.10;44.50;;;;;;4285038;33;20105;-36
2021/07/26 02:16:18;;;;;;;5.37;1.67;;;24.00;44.40;;;;;;4284610;33;20550;-37
2021/07/26 02:18:45;;;;;;;6.68;1.48;;;24.00;44.70;;;;;;4284971;33;20079;-38
2021/07/26 02:21:11;;;;;;;2.90;1.12;;;24.00;44.70;;;;;;4284722;33;20096;-43
2021/07/26 02:23:38;;;;;;;5.68;1.27;;;24.10;44.90;;;;;;4284435;33;20091;-37
2021/07/26 02:26:05;;;;;;;3.47;1.20;;;24.20;44.70;;;;;;4272215;33;20225;-37
2021/07/26 02:28:31;;;;;;;3.83;1.50;;;24.30;44.50;;;;;;4272576;33;20211;-36
2021/07/26 02:30:57;;;;;;;6.93;2.83;;;24.40;44.40;;;;;;4241291;33;20078;-37
2021/07/26 02:33:24;;;;;;;9.52;1.90;;;24.60;44.80;;;;;;4241657;33;20098;-38
2021/07/26 02:35:50;;;;;;;3.60;1.48;;;24.80;44.90;;;;;;4229758;33;20176;-36
2021/07/26 02:38:17;;;;;;;5.90;1.70;;;25.00;44.70;;;;;;4253814;33;20069;-37
2021/07/26 02:40:43;;;;;;;5.55;1.33;;;25.20;44.60;;;;;;4255473;33;20542;-37
2021/07/26 02:43:10;;;;;;;5.72;1.62;;;25.40;44.30;;;;;;4255729;33;20104;-37
2021/07/26 02:45:36;;;;;;;6.32;1.60;;;25.50;43.70;;;;;;4252374;33;20092;-37
2021/07/26 02:48:03;;;;;;;3.05;1.17;;;25.70;43.30;;;;;;4298540;33;20072;-37
2021/07/26 02:50:30;;;;;;;6.10;1.55;;;25.80;43.20;;;;;;4298037;33;20145;-37
2021/07/26 02:53:00;;;;;;;5.32;1.75;;;25.90;42.90;;;;;;4283464;33;20658;-37
2021/07/26 02:55:27;;;;;;;7.78;1.73;;;26.10;43.60;;;;;;4284335;33;20068;-38
2021/07/26 02:57:53;;;;;;;7.32;1.60;;;26.30;43.20;;;;;;4284374;33;20064;-37
2021/07/26 03:00:20;;;;;;;5.28;1.87;;;26.40;42.90;;;;;;4284291;33;20075;-37
2021/07/26 03:02:46;;;;;;;4.32;1.37;;;26.40;42.70;;;;;;4308356;33;20066;-38
2021/07/26 03:05:13;;;;;;;4.60;1.20;;;26.40;42.70;;;;;;4327753;33;20178;-38
2021/07/26 03:07:42;;;;;;;9.10;3.08;;;26.30;42.70;;;;;;4327703;33;20094;-39
2021/07/26 03:10:10;;;;;;;6.10;2.95;;;26.40;42.60;;;;;;4327085;33;20087;-37
2021/07/26 03:12:36;;;;;;;12.60;3.22;;;26.70;42.20;;;;;;4300671;33;20062;-37
2021/07/26 03:15:05;;;;;;;10.40;1.77;;;26.90;42.20;;;;;;4268862;33;20072;-37
2021/07/26 03:17:31;;;;;;;2.45;1.50;;;27.10;41.40;;;;;;4269550;33;20506;-37
2021/07/26 03:19:58;;;;;;;9.88;1.60;;;27.30;41.10;;;;;;4257384;33;20072;-37
2021/07/26 03:22:52;;;;;;;10.73;1.92;;;27.40;40.90;;;;;;4269070;33;20067;-37
2021/07/26 03:25:19;;;;;;;9.85;2.45;;;27.50;40.60;;;;;;4271772;33;20064;-38
2021/07/26 03:27:48;;;;;;;8.73;1.83;;;27.60;40.10;;;;;;4283347;33;20072;-37
2021/07/26 03:30:18;;;;;;;10.02;1.73;;;27.40;39.80;;;;;;4283302;33;20159;-37
2021/07/26 03:32:47;;;;;;;12.23;2.12;;;27.10;39.40;;;;;;4283787;33;20072;-38
2021/07/26 03:35:14;;;;;;;6.55;1.25;;;26.80;40.40;;;;;;4283739;33;20574;-38
2021/07/26 03:37:41;;;;;;;3.50;0.70;;;26.60;41.00;;;;;;4283598;33;20506;-38
2021/07/26 03:40:08;;;;;;;2.47;0.60;;;26.30;41.20;;;;;;4283571;33;20114;-37
2021/07/26 03:42:38;;;;;;;3.20;1.02;;;26.10;41.30;;;;;;4284218;33;20087;-37
2021/07/26 03:45:07;;;;;;;2.03;0.82;;;25.90;41.40;;;;;;4302391;33;20071;-36
2021/07/26 03:47:33;;;;;;;0.90;0.50;;;25.80;41.50;;;;;;4344383;33;20123;-36
2021/07/26 03:50:00;;;;;;;3.62;0.60;;;25.60;41.60;;;;;;4311870;33;20176;-38
2021/07/26 03:52:26;;;;;;;1.23;0.45;;;25.50;41.90;;;;;;4300145;33;20074;-36
2021/07/26 03:54:56;;;;;;;0.73;0.40;;;25.40;42.40;;;;;;4300274;33;20169;-36
2021/07/26 03:57:23;;;;;;;1.85;0.50;;;25.40;42.70;;;;;;4312409;33;20067;-36
2021/07/26 03:59:49;;;;;;;2.42;0.50;;;25.50;43.00;;;;;;4312389;33;20099;-36
2021/07/26 04:02:16;;;;;;;2.62;1.40;;;25.70;43.10;;;;;;4270455;33;20087;-38
2021/07/26 04:04:43;;;;;;;1.40;0.80;;;26.00;43.10;;;;;;4282852;33;20520;-38
2021/07/26 04:07:17;;;;;;;2.53;0.70;;;26.30;44.10;;;;;;4283418;33;20096;-38
2021/07/26 04:09:47;;;;;;;3.17;0.60;;;26.60;44.10;;;;;;4282741;33;20513;-38
2021/07/26 04:12:19;;;;;;;1.98;0.60;;;26.90;43.20;;;;;;4271512;33;20098;-38
2021/07/26 04:14:46;;;;;;;2.87;0.68;;;27.00;42.70;;;;;;4271396;33;20600;-38
2021/07/26 04:17:13;;;;;;;1.67;0.60;;;27.10;42.40;;;;;;4270714;33;20095;-38
2021/07/26 04:19:39;;;;;;;0.70;0.40;;;27.00;42.40;;;;;;4283058;33;20084;-37
2021/07/26 04:22:08;;;;;;;2.42;0.57;;;26.80;41.90;;;;;;4296353;33;20179;-38
2021/07/26 04:24:34;;;;;;;2.10;0.60;;;26.60;42.60;;;;;;4297851;33;20087;-37
2021/07/26 04:27:01;;;;;;;9.35;2.15;;;26.40;41.90;;;;;;4297049;33;20147;-37
2021/07/26 04:29:27;;;;;;;12.45;1.30;;;26.30;41.60;;;;;;4297400;33;20090;-37
2021/07/26 04:31:53;;;;;;;2.72;0.75;;;26.50;41.50;;;;;;4285204;33;20071;-37
2021/07/26 04:34:20;;;;;;;3.80;1.67;;;26.60;41.50;;;;;;4326981;33;20067;-37
2021/07/26 04:36:46;;;;;;;6.35;0.60;;;26.70;41.60;;;;;;4296653;33;20099;-36
2021/07/26 04:39:13;;;;;;;2.78;0.60;;;26.80;41.20;;;;;;4296867;33;20565;-38
2021/07/26 04:41:39;;;;;;;5.55;0.57;;;26.80;40.60;;;;;;4267811;33;20546;-37
2021/07/26 04:44:06;;;;;;;1.70;0.70;;;26.90;40.40;;;;;;4268181;33;20057;-37
2021/07/26 04:46:32;;;;;;;3.42;0.55;;;27.00;39.60;;;;;;4267837;33;20070;-36
2021/07/26 04:48:59;;;;;;;5.85;0.77;;;27.20;39.70;;;;;;4267658;33;20164;-37
2021/07/26 04:51:25;;;;;;;5.50;1.10;;;27.50;39.40;;;;;;4268146;33;20584;-38
2021/07/26 04:53:52;;;;;;;4.68;0.62;;;27.80;39.00;;;;;;4267825;33;20075;-38
2021/07/26 04:56:18;;;;;;;3.72;0.60;;;28.10;38.00;;;;;;4267796;33;20085;-36
2021/07/26 04:58:45;;;;;;;2.92;0.52;;;28.50;37.30;;;;;;4281068;33;20064;-39
2021/07/26 05:01:11;;;;;;;4.12;1.08;;;29.00;36.60;;;;;;4253055;33;20608;-37
2021/07/26 05:03:37;;;;;;;6.90;0.68;;;29.40;36.40;;;;;;4253243;33;20077;-38
2021/07/26 05:06:07;;;;;;;4.28;0.52;;;29.80;34.90;;;;;;4253259;33;20088;-37
2021/07/26 05:08:33;;;;;;;6.53;0.70;;;30.00;34.50;;;;;;4241674;33;20176;-38
2021/07/26 05:11:00;;;;;;;11.27;1.40;;;30.20;34.10;;;;;;4253157;33;20572;-42
2021/07/26 05:13:27;;;;;;;5.00;0.77;;;30.40;33.90;;;;;;4258854;33;20068;-38
2021/07/26 05:15:54;;;;;;;3.95;0.57;;;30.60;34.30;;;;;;4282265;33;20116;-38
2021/07/26 05:18:20;;;;;;;3.05;0.60;;;30.90;34.00;;;;;;4281664;33;20074;-38
2021/07/26 05:20:47;;;;;;;4.65;0.70;;;31.20;33.40;;;;;;4282272;33;20068;-38
2021/07/26 05:23:16;;;;;;;2.65;0.70;;;31.50;32.80;;;;;;4282039;33;20068;-38
2021/07/26 05:25:46;;;;;;;5.55;0.50;;;31.80;32.70;;;;;;4282310;33;20148;-38
2021/07/26 05:28:13;;;;;;;2.05;0.52;;;32.10;31.80;;;;;;4282316;33;20068;-38
2021/07/26 05:30:40;;;;;;;4.07;0.73;;;32.10;30.90;;;;;;4270581;33;20088;-37
2021/07/26 05:33:07;;;;;;;4.53;0.60;;;32.10;30.60;;;;;;4270391;33;20083;-38
2021/07/26 05:35:33;;;;;;;3.62;0.50;;;32.10;30.30;;;;;;4270205;33;20091;-38
2021/07/26 05:38:04;;;;;;;0.98;0.40;;;32.00;29.70;;;;;;4291894;33;20153;-37
2021/07/26 05:40:31;;;;;;;2.30;0.50;;;32.00;30.30;;;;;;4313782;33;20059;-37
2021/07/26 05:42:57;;;;;;;0.90;0.40;;;32.10;30.30;;;;;;4301571;33;20165;-38
2021/07/26 05:45:24;;;;;;;1.30;0.60;;;32.10;30.00;;;;;;4325692;33;20545;-37
2021/07/26 05:47:50;;;;;;;2.12;0.57;;;32.10;30.80;;;;;;4313468;33;20605;-38
2021/07/26 05:50:18;;;;;;;1.62;0.40;;;32.30;30.80;;;;;;4340771;32;20506;-38
2021/07/26 05:52:46;;;;;;;2.15;0.50;;;32.40;29.80;;;;;;4357592;32;20123;-38
2021/07/26 05:55:13;;;;;;;3.42;0.40;;;32.40;30.20;;;;;;4331765;32;20058;-37
2021/07/26 05:57:45;;;;;;;1.27;0.47;;;32.60;30.30;;;;;;4337113;33;20071;-38
2021/07/26 06:00:23;;;;;;;1.30;0.40;;;32.70;29.70;;;;;;4342873;33;20108;-37
2021/07/26 06:02:50;;;;;;;2.47;0.88;;;32.80;29.40;;;;;;4330176;33;20243;-38
2021/07/26 06:05:17;;;;;;;3.60;0.70;;;32.70;29.20;;;;;;4329034;33;20545;-38
2021/07/26 06:07:43;;;;;;;4.03;1.10;;;32.80;29.30;;;;;;4342690;33;20051;-37
2021/07/26 06:10:10;;;;;;;3.53;1.40;;;32.90;29.50;;;;;;4342242;33;20058;-36
2021/07/26 06:12:37;;;;;;;2.75;0.40;;;33.20;29.30;;;;;;4342704;33;20146;-37
2021/07/26 06:15:04;;;;;;;4.93;0.50;;;33.60;28.90;;;;;;4328940;33;20090;-36
2021/07/26 06:17:31;;;;;;;3.08;0.50;;;34.20;28.40;;;;;;4329008;33;20071;-37
2021/07/26 06:19:57;;;;;;;4.82;0.50;;;34.60;28.00;;;;;;4329154;33;20555;-37
2021/07/26 06:22:23;;;;;;;4.18;0.50;;;34.90;27.80;;;;;;4328549;33;20055;-38
2021/07/26 06:24:50;;;;;;;1.73;0.35;;;34.80;26.80;;;;;;4296217;33;20107;-38
2021/07/26 06:27:16;;;;;;;2.33;0.40;;;34.60;26.90;;;;;;4297650;33;20076;-38
2021/07/26 06:29:43;;;;;;;0.62;0.40;;;34.30;26.80;;;;;;4298823;33;20071;-38
2021/07/26 06:32:09;;;;;;;1.50;0.50;;;34.00;26.60;;;;;;4286883;33;20540;-37
2021/07/26 06:34:36;;;;;;;1.30;0.50;;;33.80;26.80;;;;;;4255052;33;20534;-37
2021/07/26 06:37:02;;;;;;;6.20;1.73;;;33.70;27.10;;;;;;4255831;33;20079;-37
2021/07/26 06:39:29;;;;;;;1.30;0.40;;;33.90;27.20;;;;;;4255793;33;20198;-37
2021/07/26 06:41:55;;;;;;;4.87;0.60;;;34.30;27.00;;;;;;4255164;33;20604;-38
2021/07/26 06:44:22;;;;;;;2.62;0.40;;;34.90;26.60;;;;;;4255217;33;20061;-37
2021/07/26 06:46:48;;;;;;;1.52;0.60;;;35.30;27.30;;;;;;4255170;33;20166;-37
2021/07/26 06:49:16;;;;;;;2.92;0.77;;;35.50;27.10;;;;;;4255190;33;20148;-38
2021/07/26 06:51:42;;;;;;;0.60;0.43;;;35.50;26.80;;;;;;4255652;33;20077;-37
2021/07/26 06:54:09;;;;;;;0.80;0.75;;;35.30;27.10;;;;;;4255237;33;20073;-37
2021/07/26 06:56:35;;;;;;;0.60;0.47;;;35.10;27.40;;;;;;4255917;33;20309;-37
2021/07/26 06:59:02;;;;;;;2.37;0.82;;;34.90;27.50;;;;;;4284109;33;20076;-37
2021/07/26 07:01:28;;;;;;;3.37;0.47;;;34.90;27.50;;;;;;4290572;33;20657;-37
2021/07/26 07:03:58;;;;;;;1.85;0.50;;;34.90;27.50;;;;;;4327151;33;20083;-38
2021/07/26 07:06:26;;;;;;;0.30;0.30;;;34.90;27.30;;;;;;4316765;33;20494;-38
2021/07/26 07:08:53;;;;;;;1.95;0.30;;;34.90;27.60;;;;;;4344347;33;20669;-37
2021/07/26 07:11:20;;;;;;;1.00;0.40;;;35.00;27.80;;;;;;4330830;33;20075;-39
2021/07/26 07:13:49;;;;;;;0.70;0.32;;;35.00;27.40;;;;;;4330535;33;20121;-38
2021/07/26 07:16:18;;;;;;;2.78;1.30;;;34.80;27.60;;;;;;4344571;33;20075;-38
2021/07/26 07:18:52;;;;;;;0.90;0.40;;;34.90;27.50;;;;;;4344506;33;20066;-38
2021/07/26 07:21:20;;;;;;;1.92;0.50;;;35.00;27.60;;;;;;4327102;33;20103;-38
2021/07/26 07:23:47;;;;;;;3.30;0.80;;;35.20;27.20;;;;;;4327085;33;20179;-38
2021/07/26 07:26:15;;;;;;;4.80;0.68;;;35.10;27.00;;;;;;4327495;33;20128;-38
2021/07/26 07:28:41;;;;;;;0.37;0.30;;;35.00;27.10;;;;;;4314893;33;20566;-39
2021/07/26 07:31:08;;;;;;;5.37;0.40;;;34.80;26.90;;;;;;4314788;33;20074;-38
2021/07/26 07:33:34;;;;;;;2.05;0.30;;;34.60;26.70;;;;;;4327302;33;20143;-40
2021/07/26 07:36:03;;;;;;;1.08;0.32;;;34.30;26.90;;;;;;4326846;33;20597;-38
2021/07/26 07:38:29;;;;;;;0.57;0.40;;;34.00;27.20;;;;;;4326868;33;20071;-39
2021/07/26 07:40:58;;;;;;;0.65;0.25;;;33.60;27.10;;;;;;4326754;33;20071;-38
2021/07/26 07:43:28;;;;;;;2.35;0.40;;;33.30;27.40;;;;;;4326866;33;20071;-38
2021/07/26 07:45:55;;;;;;;2.17;0.30;;;32.90;27.40;;;;;;4326699;33;20074;-39
2021/07/26 07:48:24;;;;;;;2.00;0.30;;;32.50;27.70;;;;;;4327285;33;20200;-38
2021/07/26 07:50:54;;;;;;;0.50;0.40;;;32.30;28.30;;;;;;4326978;33;20511;-38
2021/07/26 07:53:21;;;;;;;4.43;0.28;;;32.20;27.30;;;;;;4342483;33;20696;-39
2021/07/26 07:55:48;;;;;;;0.60;0.32;;;32.20;27.00;;;;;;4344046;33;20061;-38
2021/07/26 07:58:14;;;;;;;0.88;0.30;;;32.20;26.50;;;;;;4344199;33;20532;-38
2021/07/26 08:00:41;;;;;;;2.25;0.40;;;32.20;26.90;;;;;;4344013;32;20482;-38
2021/07/26 08:03:07;;;;;;;0.50;0.30;;;32.10;27.30;;;;;;4343860;33;20168;-39
2021/07/26 08:05:34;;;;;;;0.70;0.32;;;32.00;27.10;;;;;;4342428;33;20644;-38
2021/07/26 08:08:00;;;;;;;1.30;0.57;;;31.90;27.40;;;;;;4343744;32;20082;-38
2021/07/26 08:10:27;;;;;;;0.85;0.30;;;31.80;27.00;;;;;;4348070;32;20495;-39
2021/07/26 08:12:53;;;;;;;0.35;0.30;;;31.70;27.30;;;;;;4345054;32;20070;-40
2021/07/26 08:15:20;;;;;;;1.55;0.30;;;31.70;27.60;;;;;;4358870;32;20069;-39
2021/07/26 08:17:47;;;;;;;0.35;0.30;;;31.80;27.20;;;;;;4358563;32;20073;-38
2021/07/26 08:20:16;;;;;;;0.88;0.20;;;31.90;27.10;;;;;;4358638;32;20062;-38
2021/07/26 08:22:43;;;;;;;0.40;0.30;;;32.00;26.90;;;;;;4358316;32;20066;-38
2021/07/26 08:25:13;;;;;;;0.43;0.30;;;32.00;26.80;;;;;;4344567;32;20073;-37
2021/07/26 08:27:53;;;;;;;0.95;0.30;;;32.00;26.70;;;;;;4358832;32;20054;-37
2021/07/26 08:30:22;;;;;;;0.77;0.30;;;32.20;26.90;;;;;;4358161;32;20073;-38
2021/07/26 08:32:49;;;;;;;0.40;0.30;;;32.40;26.40;;;;;;4358449;32;20551;-38
2021/07/26 08:35:16;;;;;;;0.70;0.60;;;32.60;26.30;;;;;;4358125;32;20167;-39
2021/07/26 08:37:42;;;;;;;2.78;0.30;;;32.70;26.10;;;;;;4358547;32;20142;-36
2021/07/26 08:40:10;;;;;;;0.40;0.30;;;32.70;25.70;;;;;;4358049;32;20443;-39
2021/07/26 08:42:36;;;;;;;1.15;0.30;;;32.60;26.10;;;;;;4358709;32;20055;-39
2021/07/26 08:45:04;;;;;;;1.98;0.30;;;32.60;26.10;;;;;;4357892;32;20481;-37
2021/07/26 08:47:32;;;;;;;1.60;0.43;;;32.60;25.80;;;;;;4358305;32;20510;-39
2021/07/26 08:50:02;;;;;;;0.80;0.30;;;32.50;26.10;;;;;;4344056;32;20078;-38
2021/07/26 08:52:32;;;;;;;1.37;0.32;;;32.40;26.30;;;;;;4357870;32;20076;-38
2021/07/26 08:54:58;;;;;;;2.60;0.30;;;32.40;27.30;;;;;;4344112;32;20245;-38
2021/07/26 08:57:25;;;;;;;0.95;0.30;;;32.40;27.20;;;;;;4352336;32;20066;-39
2021/07/26 08:59:51;;;;;;;0.25;0.20;;;32.50;26.90;;;;;;4329367;33;20562;-40
2021/07/26 09:02:17;;;;;;;0.60;0.40;;;32.60;26.80;;;;;;4342604;33;20559;-39
2021/07/26 09:04:44;;;;;;;3.28;0.45;;;32.90;27.30;;;;;;4342697;33;20515;-37
2021/07/26 09:07:11;;;;;;;1.87;0.40;;;33.00;27.60;;;;;;4343254;33;20561;-38
2021/07/26 09:09:55;;;;;;;0.52;0.40;;;33.30;28.20;;;;;;4343518;33;20073;-39
2021/07/26 09:12:36;;;;;;;0.65;0.30;;;33.50;28.10;;;;;;4343191;33;20065;-37
2021/07/26 09:15:04;;;;;;;0.52;0.40;;;33.50;27.10;;;;;;4343070;33;20059;-39
2021/07/26 09:17:44;;;;;;;1.80;0.60;;;33.20;27.30;;;;;;4342674;33;20091;-39
2021/07/26 09:20:12;;;;;;;3.03;0.40;;;32.90;28.10;;;;;;4343242;33;20087;-39
2021/07/26 09:22:46;;;;;;;0.70;0.32;;;32.70;28.60;;;;;;4343127;33;20066;-39
2021/07/26 09:25:29;;;;;;;2.17;0.43;;;32.50;28.30;;;;;;4330470;33;20070;-38
2021/07/26 09:28:13;;;;;;;0.73;0.35;;;32.50;28.10;;;;;;4342693;33;20116;-39
2021/07/26 09:30:53;;;;;;;3.23;0.43;;;32.50;27.80;;;;;;4343665;33;20062;-39
2021/07/26 09:33:30;;;;;;;0.93;0.40;;;32.40;27.80;;;;;;4329068;33;20177;-38
2021/07/26 09:36:21;;;;;;;4.45;0.43;;;32.40;28.10;;;;;;4343019;33;20467;-37
2021/07/26 09:38:53;;;;;;;0.50;0.40;;;32.30;28.20;;;;;;4342756;33;20482;-39
2021/07/26 09:41:45;;;;;;;0.62;0.40;;;32.20;28.40;;;;;;4342699;33;20074;-39
2021/07/26 09:44:12;;;;;;;1.17;0.40;;;32.20;28.80;;;;;;4343431;33;20083;-39
2021/07/26 09:46:39;;;;;;;3.03;0.77;;;32.10;29.20;;;;;;4343011;33;20484;-38
2021/07/26 09:49:17;;;;;;;1.67;0.50;;;32.00;28.60;;;;;;4329056;33;20062;-38
2021/07/26 09:52:01;;;;;;;1.08;0.57;;;32.00;28.50;;;;;;4343013;33;20086;-39
2021/07/26 09:54:49;;;;;;;0.70;0.40;;;32.00;27.80;;;;;;4331043;33;20054;-38
2021/07/26 09:57:23;;;;;;;3.90;0.40;;;31.90;28.50;;;;;;4347716;32;20154;-37
2021/07/26 09:59:51;;;;;;;2.95;0.52;;;32.00;28.90;;;;;;4343857;32;20069;-38
2021/07/26 10:02:23;;;;;;;0.77;0.40;;;32.00;28.70;;;;;;4346659;32;20055;-39
2021/07/26 10:04:50;;;;;;;2.40;0.50;;;32.10;28.70;;;;;;4360208;32;20150;-37
2021/07/26 10:07:18;;;;;;;1.37;0.40;;;32.10;29.10;;;;;;4346674;32;20104;-37
2021/07/26 10:09:46;;;;;;;1.23;0.50;;;32.20;28.70;;;;;;4346832;32;20078;-38
2021/07/26 10:12:20;;;;;;;1.02;0.40;;;32.20;28.60;;;;;;4360545;32;20066;-39
2021/07/26 10:14:50;;;;;;;1.85;0.40;;;32.20;28.60;;;;;;4360194;32;20528;-37
2021/07/26 10:17:16;;;;;;;2.62;0.50;;;32.50;28.30;;;;;;4346189;32;20578;-37
2021/07/26 10:19:43;;;;;;;2.00;0.50;;;32.70;28.00;;;;;;4360261;32;20075;-39
2021/07/26 10:22:14;;;;;;;0.75;0.35;;;32.90;27.40;;;;;;4359888;32;20086;-39
2021/07/26 10:24:47;;;;;;;1.12;0.40;;;32.90;26.50;;;;;;4334733;32;20046;-39
2021/07/26 10:27:31;;;;;;;2.13;0.30;;;32.80;27.20;;;;;;4346586;32;20443;-38
2021/07/26 10:29:59;;;;;;;0.80;0.40;;;32.70;26.90;;;;;;4346424;32;20155;-38
2021/07/26 10:32:33;;;;;;;0.43;0.32;;;32.60;26.70;;;;;;4360060;32;20074;-37
2021/07/26 10:35:24;;;;;;;0.60;0.35;;;32.50;26.90;;;;;;4346210;32;20066;-37
2021/07/26 10:37:51;;;;;;;0.90;0.37;;;32.40;26.80;;;;;;4359926;32;20133;-38
2021/07/26 10:40:31;;;;;;;0.70;0.40;;;32.40;26.60;;;;;;4359577;32;20062;-37
2021/07/26 10:43:03;;;;;;;2.53;0.40;;;32.50;26.70;;;;;;4359775;32;20070;-38
2021/07/26 10:45:32;;;;;;;5.22;0.60;;;32.60;26.90;;;;;;4359872;32;20106;-38
2021/07/26 10:48:24;;;;;;;1.55;0.45;;;32.50;27.10;;;;;;4359958;32;20068;-38
2021/07/26 10:50:52;;;;;;;4.30;0.50;;;32.40;27.30;;;;;;4359741;32;20132;-38
2021/07/26 10:53:37;;;;;;;1.33;0.50;;;32.40;27.50;;;;;;4333927;32;20078;-37
2021/07/26 10:56:11;;;;;;;0.70;0.40;;;32.30;27.40;;;;;;4359970;32;20548;-38
2021/07/26 10:58:41;;;;;;;1.10;0.30;;;32.40;27.40;;;;;;4346349;32;20110;-37
2021/07/26 11:01:22;;;;;;;1.75;0.40;;;32.20;27.50;;;;;;4345076;33;20078;-38
2021/07/26 11:03:51;;;;;;;0.55;0.30;;;32.10;27.30;;;;;;4344925;33;20056;-37
2021/07/26 11:06:41;;;;;;;2.78;0.85;;;31.90;27.10;;;;;;4345156;33;20102;-39
2021/07/26 11:09:40;;;;;;;0.52;0.40;;;31.80;27.50;;;;;;4344673;33;20448;-39
2021/07/26 11:12:07;;;;;;;1.58;0.40;;;31.60;27.40;;;;;;4344029;33;20148;-39
2021/07/26 11:14:33;;;;;;;2.78;0.50;;;31.50;27.50;;;;;;4331107;33;20067;-37
2021/07/26 11:17:06;;;;;;;1.35;0.50;;;31.50;27.50;;;;;;4318815;33;20066;-37
2021/07/26 11:19:59;;;;;;;5.75;1.70;;;31.60;27.60;;;;;;4344687;33;20047;-39
2021/07/26 11:22:26;;;;;;;3.08;0.68;;;31.60;27.30;;;;;;4331875;33;20503;-39
2021/07/26 11:24:54;;;;;;;0.55;0.50;;;31.60;27.60;;;;;;4343854;33;20063;-37
2021/07/26 11:27:33;;;;;;;3.97;0.70;;;31.60;27.70;;;;;;4344822;33;20138;-38
2021/07/26 11:29:59;;;;;;;2.45;0.40;;;31.70;27.60;;;;;;4344187;33;20062;-38
2021/07/26 11:32:28;;;;;;;1.10;0.40;;;31.80;27.40;;;;;;4318405;33;20066;-39
2021/07/26 11:34:58;;;;;;;2.28;0.52;;;31.80;27.20;;;;;;4344462;33;20535;-38
2021/07/26 11:37:36;;;;;;;2.15;0.40;;;32.00;27.20;;;;;;4344437;33;20515;-38
2021/07/26 11:40:04;;;;;;;0.73;0.45;;;32.10;26.50;;;;;;4343834;33;20209;-37
2021/07/26 11:42:41;;;;;;;5.78;0.40;;;32.20;26.60;;;;;;4344240;33;20078;-39
2021/07/26 11:45:14;;;;;;;3.33;0.40;;;32.20;26.40;;;;;;4344282;33;20093;-38
2021/07/26 11:47:43;;;;;;;1.90;0.40;;;32.30;26.30;;;;;;4344171;33;20562;-38
2021/07/26 11:50:14;;;;;;;2.97;0.30;;;32.20;26.00;;;;;;4344020;33;20078;-38
2021/07/26 11:52:54;;;;;;;1.85;0.50;;;32.40;26.10;;;;;;4343899;33;20095;-37
2021/07/26 11:55:23;;;;;;;2.15;0.40;;;32.50;25.20;;;;;;4344022;33;20453;-39
2021/07/26 11:58:09;;;;;;;1.75;0.40;;;32.70;25.60;;;;;;4344179;33;20059;-38
2021/07/26 12:00:42;;;;;;;2.53;0.40;;;32.80;25.50;;;;;;4344428;32;20077;-38
2021/07/26 12:03:08;;;;;;;1.40;0.40;;;33.00;25.60;;;;;;4343718;32;20047;-39
2021/07/26 12:05:35;;;;;;;0.70;0.30;;;33.20;25.10;;;;;;4342045;33;20495;-38
2021/07/26 12:08:15;;;;;;;0.60;0.32;;;33.30;26.00;;;;;;4343742;32;20674;-38
2021/07/26 12:10:43;;;;;;;0.60;0.30;;;33.40;25.40;;;;;;4342140;33;20110;-38
2021/07/26 12:13:18;;;;;;;0.70;0.30;;;33.50;25.00;;;;;;4342616;33;20082;-38
2021/07/26 12:16:09;;;;;;;3.35;0.40;;;33.70;24.80;;;;;;4343741;32;20061;-38
2021/07/26 12:18:36;;;;;;;1.00;0.50;;;33.70;25.40;;;;;;4342830;33;20107;-38
2021/07/26 12:21:03;;;;;;;1.00;0.40;;;33.70;25.50;;;;;;4343283;32;20149;-38
2021/07/26 12:23:31;;;;;;;1.48;0.40;;;33.60;25.20;;;;;;4341557;32;20098;-38
2021/07/26 12:26:08;;;;;;;0.60;0.40;;;33.40;26.00;;;;;;4341929;33;20094;-38
2021/07/26 12:28:50;;;;;;;3.30;0.60;;;33.20;25.20;;;;;;4343766;32;20059;-38
2021/07/26 12:31:35;;;;;;;0.65;0.40;;;33.00;25.60;;;;;;4343162;32;20137;-37
2021/07/26 12:34:22;;;;;;;4.62;0.80;;;32.80;26.20;;;;;;4343802;32;20067;-38
2021/07/26 12:36:49;;;;;;;1.00;0.50;;;32.60;26.60;;;;;;4343697;32;20177;-39
2021/07/26 12:39:18;;;;;;;0.77;0.40;;;32.60;26.80;;;;;;4342245;33;20063;-39
2021/07/26 12:41:46;;;;;;;2.15;0.50;;;32.60;26.70;;;;;;4343507;32;20098;-39
2021/07/26 12:44:20;;;;;;;4.97;0.50;;;32.50;26.90;;;;;;4343951;32;20081;-39
2021/07/26 12:46:48;;;;;;;2.25;0.60;;;32.40;26.70;;;;;;4343493;32;20150;-38
2021/07/26 12:49:16;;;;;;;1.83;0.40;;;32.20;26.90;;;;;;4342122;33;20079;-38
2021/07/26 12:51:43;;;;;;;1.12;0.50;;;32.00;27.20;;;;;;4341978;33;20075;-38
2021/07/26 12:54:10;;;;;;;0.50;0.40;;;32.00;27.20;;;;;;4341754;33;20142;-39
2021/07/26 12:56:36;;;;;;;6.68;0.68;;;32.10;27.30;;;;;;4343351;32;20082;-39
2021/07/26 12:59:03;;;;;;;1.37;0.90;;;32.10;27.30;;;;;;4342793;33;20609;-38